Time;durP1;ratioP1;P1;durP2;ratioP2;P2;SDS_P1;SDS_P2;PMS_P1;PMS_P2;Temp;Humidity;BMP_temperature;BMP_pressure;BME280_temperature;BME280_humidity;BME280_pressure;Samples;Min_cycle;Max_cycle;Signal;HPM_P1;HPM_P2
2023/10/05 00:07:32;;;;;;;10.10;4.77;;;;;;;12.37;100.00;101237.34;5078833;56;1142933;-71
2023/10/05 00:12:33;;;;;;;12.95;4.70;;;;;;;12.34;100.00;101233.11;5047731;56;1142939;-72
2023/10/05 00:17:39;;;;;;;10.40;4.72;;;;;;;12.31;100.00;101231.52;4999268;56;1142945;-72
2023/10/05 00:22:45;;;;;;;12.93;5.10;;;;;;;12.31;100.00;101228.87;5039409;56;1142995;-72
2023/10/05 00:27:54;;;;;;;7.33;3.73;;;;;;;12.26;100.00;101229.67;4996366;57;1142709;-73
2023/10/05 00:32:59;;;;;;;12.60;4.90;;;;;;;12.25;100.00;101231.95;5099988;56;1141070;-72
2023/10/05 00:38:16;;;;;;;12.87;5.00;;;;;;;12.20;100.00;101220.86;4968568;56;1142702;-72
2023/10/05 00:43:23;;;;;;;8.90;4.37;;;;;;;12.19;100.00;101223.14;4916013;57;1142968;-72
2023/10/05 00:48:56;;;;;;;11.20;5.07;;;;;;;12.17;100.00;101229.03;4979991;56;1140812;-72
2023/10/05 00:53:47;;;;;;;9.63;5.00;;;;;;;12.14;100.00;101220.45;5109216;56;1142755;-72
2023/10/05 00:59:05;;;;;;;11.07;4.37;;;;;;;12.10;100.00;101217.16;5108914;56;1140741;-73
2023/10/05 01:14:51;;;;;;;13.90;5.20;;;;;;;12.03;100.00;101206.66;5027575;56;1140858;-72
2023/10/05 01:19:58;;;;;;;13.33;5.70;;;;;;;11.99;100.00;101207.83;5000211;57;1143093;-72
2023/10/05 01:25:04;;;;;;;10.28;5.03;;;;;;;11.96;100.00;101202.73;5092223;56;1143033;-72
2023/10/05 01:30:13;;;;;;;8.03;5.03;;;;;;;11.95;100.00;101201.05;5118691;56;1143165;-72
2023/10/05 01:35:20;;;;;;;12.87;4.57;;;;;;;11.92;100.00;101184.88;5099284;56;1140939;-72
2023/10/05 01:40:30;;;;;;;13.80;4.73;;;;;;;11.93;100.00;101175.97;4988319;57;1142882;-72
2023/10/05 01:45:33;;;;;;;10.08;4.83;;;;;;;11.87;100.00;101163.66;4972115;57;1142829;-72
2023/10/05 01:50:39;;;;;;;11.50;4.83;;;;;;;11.94;100.00;101168.86;5048099;55;1142824;-72
2023/10/05 01:55:47;;;;;;;6.35;3.90;;;;;;;11.93;100.00;101170.67;5079117;56;1143041;-72
2023/10/05 02:00:54;;;;;;;14.80;5.73;;;;;;;11.90;100.00;101160.79;5139917;55;1141022;-72
2023/10/05 02:06:04;;;;;;;9.93;4.60;;;;;;;11.89;100.00;101156.45;5089661;57;1143090;-72
2023/10/05 02:11:07;;;;;;;16.83;4.90;;;;;;;11.86;100.00;101148.71;5001959;56;1140845;-72
2023/10/05 02:16:20;;;;;;;10.10;4.97;;;;;;;11.83;100.00;101142.30;4995808;57;1142771;-72
2023/10/05 02:21:30;;;;;;;13.87;5.10;;;;;;;11.78;100.00;101139.98;5102395;56;1143214;-72
2023/10/05 02:26:36;;;;;;;11.60;5.17;;;;;;;11.74;100.00;101135.84;4919205;57;1143148;-71
2023/10/05 02:32:10;;;;;;;11.60;4.67;;;;;;;11.67;100.00;101134.59;4916308;57;1142805;-72
2023/10/05 02:36:54;;;;;;;18.40;5.43;;;;;;;11.62;100.00;101121.66;4915213;57;1142939;-72
2023/10/05 02:42:03;;;;;;;15.03;6.73;;;;;;;11.58;100.00;101112.74;5011064;57;1143076;-71
2023/10/05 02:47:14;;;;;;;9.33;5.53;;;;;;;11.55;100.00;101110.31;4996278;57;1143123;-72
2023/10/05 02:52:20;;;;;;;;;;;;;;;11.50;100.00;101102.69;5000499;57;1140879;-72
2023/10/05 02:57:26;;;;;;;15.83;5.77;;;;;;;11.51;100.00;101096.91;5033088;57;978335;-72
2023/10/05 03:02:37;;;;;;;16.67;5.00;;;;;;;11.44;100.00;101089.91;4996748;57;1141219;-72
2023/10/05 03:07:43;;;;;;;11.73;5.28;;;;;;;11.41;100.00;101087.95;5024729;56;1142916;-72
2023/10/05 03:12:47;;;;;;;12.53;5.35;;;;;;;11.39;100.00;101092.02;5098961;56;1143002;-72
2023/10/05 03:17:56;;;;;;;11.57;5.57;;;;;;;11.38;100.00;101079.73;5079514;56;1143320;-72
2023/10/05 03:23:03;;;;;;;10.85;4.40;;;;;;;11.38;100.00;101074.91;5081119;56;1142992;-71
2023/10/05 03:28:09;;;;;;;10.07;5.13;;;;;;;11.35;100.00;101068.03;5184700;55;1143004;-72
2023/10/05 03:33:17;;;;;;;11.77;5.10;;;;;;;11.31;100.00;101056.44;5028817;56;1142931;-72
2023/10/05 03:38:22;;;;;;;15.00;5.73;;;;;;;11.29;100.00;101063.20;5059744;56;1143220;-72
2023/10/05 03:43:31;;;;;;;10.67;4.63;;;;;;;11.28;100.00;101054.41;5098527;56;1143172;-71
2023/10/05 03:48:39;;;;;;;14.13;5.47;;;;;;;11.25;100.00;101052.45;5110527;55;1143206;-72
2023/10/05 03:53:51;;;;;;;10.33;4.70;;;;;;;11.23;100.00;101057.85;5124017;55;1143337;-72
2023/10/05 03:59:00;;;;;;;9.65;5.00;;;;;;;11.21;100.00;101050.49;5185700;56;1142989;-72
2023/10/05 04:04:08;;;;;;;16.37;4.70;;;;;;;11.19;100.00;101044.94;5172157;56;1140772;-72
2023/10/05 04:09:15;;;;;;;16.80;5.58;;;;;;;11.16;100.00;101042.02;5097998;56;1143044;-72
2023/10/05 04:14:19;;;;;;;12.63;5.30;;;;;;;11.16;100.00;101041.17;5098305;56;1143162;-71
2023/10/05 04:19:25;;;;;;;9.37;4.37;;;;;;;11.13;100.00;101034.33;5166001;56;1142806;-72
2023/10/05 04:24:33;;;;;;;19.40;5.20;;;;;;;11.10;100.00;101033.69;5185242;55;1140572;-72
2023/10/05 04:29:39;;;;;;;9.35;4.72;;;;;;;11.06;100.00;101022.95;5159865;55;1143057;-71
2023/10/05 04:34:44;;;;;;;7.30;4.47;;;;;;;11.01;100.00;101015.33;5118248;56;1140803;-72
2023/10/05 04:39:50;;;;;;;7.90;4.70;;;;;;;10.99;100.00;101018.59;5098839;56;1140954;-72
2023/10/05 04:44:56;;;;;;;10.82;5.17;;;;;;;10.93;100.00;101019.02;5099349;56;1140995;-71
2023/10/05 04:50:02;;;;;;;7.70;4.23;;;;;;;10.88;100.00;101019.33;5167820;55;1143082;-71
2023/10/05 04:55:22;;;;;;;9.93;3.92;;;;;;;10.83;100.00;101012.22;5032239;56;1140928;-71
2023/10/05 05:11:11;;;;;;;7.60;3.57;;;;;;;10.75;100.00;101010.56;4996042;56;1142944;-71
2023/10/05 05:16:17;;;;;;;7.57;4.43;;;;;;;10.75;100.00;101009.72;4995969;56;1140961;-71
2023/10/05 05:21:23;;;;;;;14.17;4.60;;;;;;;10.73;100.00;101005.02;5094141;56;1140827;-72
2023/10/05 05:26:29;;;;;;;11.60;4.67;;;;;;;10.73;100.00;101001.05;5056891;56;1143175;-71
2023/10/05 05:31:35;;;;;;;12.40;4.47;;;;;;;10.75;100.00;100988.08;5007467;57;1142971;-71
2023/10/05 05:36:42;;;;;;;11.95;4.30;;;;;;;10.77;100.00;100987.98;4935385;58;1142827;-72
2023/10/05 05:41:59;;;;;;;8.55;4.62;;;;;;;10.83;100.00;100984.43;4916503;56;1142909;-72
2023/10/05 05:46:59;;;;;;;11.47;4.43;;;;;;;10.93;100.00;100971.38;4987546;57;1141015;-71
2023/10/05 05:52:05;;;;;;;11.85;4.75;;;;;;;11.00;100.00;100963.85;4989062;57;1143119;-72
2023/10/05 05:57:11;;;;;;;14.27;4.33;;;;;;;11.05;100.00;100963.02;4944423;57;1142890;-72
2023/10/05 06:02:16;;;;;;;16.43;4.73;;;;;;;11.16;100.00;100951.16;5011091;57;1142876;-73
2023/10/05 06:07:25;;;;;;;8.43;3.97;;;;;;;11.16;100.00;100951.16;4930500;57;1143029;-71
2023/10/05 06:12:30;;;;;;;12.20;5.97;;;;;;;11.22;100.00;100952.05;4949604;58;1141014;-70
2023/10/05 06:17:38;;;;;;;11.50;4.80;;;;;;;11.33;100.00;100954.75;5025570;56;1142895;-72
2023/10/05 06:22:46;;;;;;;11.50;4.33;;;;;;;11.46;100.00;100951.55;5098914;56;1143111;-71
2023/10/05 06:27:52;;;;;;;7.78;3.90;;;;;;;11.67;100.00;100940.32;5001290;56;1143053;-74
2023/10/05 06:32:58;;;;;;;8.20;3.40;;;;;;;11.77;100.00;100946.16;4971704;56;1140932;-75
2023/10/05 06:38:04;;;;;;;16.30;4.30;;;;;;;11.82;100.00;100942.69;5024098;56;1140767;-74
2023/10/05 06:43:10;;;;;;;8.40;4.13;;;;;;;11.78;100.00;100939.89;5036692;56;1143131;-73
2023/10/05 06:48:16;;;;;;;10.23;4.03;;;;;;;11.79;100.00;100936.29;5032841;56;1140794;-74
2023/10/05 06:53:21;;;;;;;10.47;4.17;;;;;;;11.79;100.00;100935.44;4985226;57;1142985;-72
2023/10/05 06:58:27;;;;;;;7.53;3.80;;;;;;;11.80;100.00;100939.78;4977802;57;1143136;-72
2023/10/05 07:03:33;;;;;;;12.13;4.00;;;;;;;11.85;100.00;100931.02;4975932;57;1140756;-72
2023/10/05 07:08:38;;;;;;;9.70;3.60;;;;;;;11.91;100.00;100918.63;5049099;56;1142860;-72
2023/10/05 07:13:46;;;;;;;10.93;3.90;;;;;;;11.95;100.00;100934.16;5051907;56;1141088;-72
2023/10/05 07:18:52;;;;;;;9.13;3.43;;;;;;;12.01;100.00;100919.59;5044139;56;1142973;-74
2023/10/05 07:23:59;;;;;;;10.03;3.70;;;;;;;12.07;100.00;100920.43;4958981;56;1140942;-72
2023/10/05 07:29:05;;;;;;;12.93;4.03;;;;;;;12.10;100.00;100913.57;4910609;58;1142931;-73
2023/10/05 07:34:10;;;;;;;14.03;4.20;;;;;;;12.11;100.00;100923.22;4995641;57;1143197;-71
2023/10/05 07:39:23;;;;;;;10.17;3.73;;;;;;;12.13;100.00;100919.97;5070433;57;1143131;-72
2023/10/05 07:44:23;;;;;;;9.90;3.17;;;;;;;12.15;100.00;100928.66;5100389;55;1142898;-74
2023/10/05 07:49:29;;;;;;;17.97;4.93;;;;;;;12.16;100.00;100922.39;5124246;55;1140675;-72
2023/10/05 07:54:38;;;;;;;10.18;3.70;;;;;;;12.19;100.00;100920.83;5110525;56;1263568;-73
2023/10/05 07:59:44;;;;;;;11.00;4.00;;;;;;;12.25;100.00;100925.64;5071086;56;1142812;-73
2023/10/05 08:04:49;;;;;;;10.35;4.15;;;;;;;12.32;100.00;100926.86;5040413;55;1142962;-72
2023/10/05 08:09:55;;;;;;;13.23;4.13;;;;;;;12.40;100.00;100922.27;4955376;57;1142855;-74
2023/10/05 08:15:01;;;;;;;10.90;3.77;;;;;;;12.53;100.00;100922.98;4980375;56;1143052;-73
2023/10/05 08:20:08;;;;;;;11.63;4.50;;;;;;;12.70;100.00;100909.69;4923491;58;1143008;-66
2023/10/05 08:25:16;;;;;;;20.83;4.67;;;;;;;12.94;100.00;100905.56;4998440;56;1143344;-72
2023/10/05 08:30:24;;;;;;;10.50;3.70;;;;;;;13.01;100.00;100909.39;5183898;55;1142932;-66
2023/10/05 08:35:40;;;;;;;14.37;4.30;;;;;;;13.10;100.00;100909.14;4982038;56;1143058;-65
2023/10/05 08:45:47;;;;;;;15.10;4.37;;;;;;;13.11;100.00;100905.52;5000937;56;1141055;-67
2023/10/05 08:50:58;;;;;;;13.62;3.95;;;;;;;13.16;100.00;100898.87;4993816;57;1142995;-67
2023/10/05 08:56:04;;;;;;;15.25;4.95;;;;;;;13.23;100.00;100888.11;4981071;56;1143472;-71
2023/10/05 09:01:33;;;;;;;13.13;4.23;;;;;;;13.28;100.00;100901.87;4934609;58;1142939;-72
2023/10/05 09:07:34;;;;;;;12.63;3.53;;;;;;;13.31;100.00;100903.40;4906677;58;1142990;-73
2023/10/05 09:12:41;;;;;;;9.43;3.50;;;;;;;13.37;100.00;100898.43;5033067;57;1142749;-72
2023/10/05 09:23:20;;;;;;;15.87;4.70;;;;;;;13.63;100.00;100893.58;4996614;56;1143049;-71
2023/10/05 09:28:45;;;;;;;28.03;6.70;;;;;;;13.75;100.00;100889.03;5020503;57;1143067;-73
2023/10/05 09:33:47;;;;;;;24.10;6.60;;;;;;;13.92;100.00;100888.93;5069293;57;1152766;-72
2023/10/05 09:38:54;;;;;;;20.07;6.57;;;;;;;14.09;100.00;100892.31;5076510;55;1143017;-71
2023/10/05 09:44:02;;;;;;;11.40;4.00;;;;;;;14.18;100.00;100878.72;5016318;57;1143032;-72
2023/10/05 09:49:14;;;;;;;8.30;3.70;;;;;;;14.26;100.00;100905.00;4975376;57;1142987;-72
2023/10/05 09:54:20;;;;;;;13.28;4.60;;;;;;;14.31;100.00;100906.78;4917626;57;1140645;-73
2023/10/05 09:59:27;;;;;;;11.97;4.57;;;;;;;14.41;100.00;100912.17;4921653;58;1142813;-73
2023/10/05 10:04:36;;;;;;;10.43;3.87;;;;;;;14.51;100.00;100913.55;4944684;57;1143117;-73
2023/10/05 10:09:46;;;;;;;17.30;4.03;;;;;;;14.51;100.00;100915.73;4952423;58;1143333;-72
2023/10/05 10:14:58;;;;;;;12.55;3.95;;;;;;;14.51;100.00;100906.91;5007716;57;1142839;-72
2023/10/05 10:20:37;;;;;;;10.28;3.95;;;;;;;14.49;100.00;100918.16;4997005;57;1142909;-72
2023/10/05 10:25:41;;;;;;;12.63;3.70;;;;;;;14.51;100.00;100926.86;5002099;57;1142811;-74
2023/10/05 10:31:14;;;;;;;12.03;3.80;;;;;;;14.55;100.00;100919.78;4990011;57;1142966;-71
2023/10/05 10:36:23;;;;;;;11.23;3.30;;;;;;;14.59;100.00;100917.70;4985783;57;1142934;-71
2023/10/05 10:41:30;;;;;;;9.43;3.63;;;;;;;14.66;100.00;100920.19;4960259;57;1142861;-73
2023/10/05 10:46:38;;;;;;;9.77;3.53;;;;;;;14.74;100.00;100921.67;5040940;57;1140784;-71
2023/10/05 10:51:43;;;;;;;8.70;3.87;;;;;;;14.76;100.00;100918.39;4980133;57;1140777;-73
2023/10/05 10:56:49;;;;;;;7.43;3.27;;;;;;;14.76;100.00;100918.39;4948435;57;1140554;-73
2023/10/05 11:01:59;;;;;;;7.92;3.47;;;;;;;14.77;100.00;100916.08;5007976;57;1140799;-72
2023/10/05 11:07:05;;;;;;;9.63;3.60;;;;;;;14.81;100.00;100923.31;5036588;56;1141070;-73
2023/10/05 11:12:11;;;;;;;10.23;3.90;;;;;;;14.81;100.00;100916.17;4977559;57;1140818;-73
2023/10/05 11:17:44;;;;;;;12.13;4.20;;;;;;;14.81;100.00;100919.32;4957638;56;1143133;-76
2023/10/05 11:22:44;;;;;;;11.73;4.37;;;;;;;14.80;100.00;100917.63;5070790;56;1143042;-73
2023/10/05 11:27:58;;;;;;;13.38;3.98;;;;;;;14.81;100.00;100924.16;5014304;57;1142808;-71
2023/10/05 11:33:05;;;;;;;7.80;3.10;;;;;;;14.83;100.00;100924.84;5071483;56;1142779;-72
2023/10/05 11:38:15;;;;;;;6.50;3.80;;;;;;;14.64;100.00;100934.12;5011672;57;1140779;-71
2023/10/05 11:43:21;;;;;;;13.33;4.33;;;;;;;14.64;100.00;100934.12;5049293;56;1140845;-70
2023/10/05 11:48:41;;;;;;;14.87;3.90;;;;;;;14.46;100.00;100939.23;5020110;56;1143170;-72
2023/10/05 11:53:43;;;;;;;12.43;5.80;;;;;;;14.23;100.00;100958.95;4974825;57;1143260;-71
2023/10/05 11:58:49;;;;;;;14.47;4.12;;;;;;;13.97;100.00;100957.20;5028249;57;1143248;-72
2023/10/05 12:03:55;;;;;;;11.18;4.58;;;;;;;13.71;100.00;100968.22;4995890;56;1142838;-72
2023/10/05 12:09:06;;;;;;;9.90;4.30;;;;;;;13.49;100.00;100970.96;5000951;56;1143001;-72
2023/10/05 12:14:08;;;;;;;9.93;4.60;;;;;;;13.32;100.00;100967.03;4950075;56;1140686;-66
2023/10/05 12:19:14;;;;;;;6.03;3.60;;;;;;;13.27;100.00;100968.40;4933016;58;1140789;-66
2023/10/05 12:24:19;;;;;;;15.57;6.20;;;;;;;13.26;100.00;100979.50;4990598;57;1141190;-67
2023/10/05 12:29:25;;;;;;;9.40;3.87;;;;;;;13.31;100.00;100982.61;4982385;56;1143064;-67
2023/10/05 12:34:31;;;;;;;10.67;3.67;;;;;;;13.32;100.00;100984.30;4935085;56;1141105;-68
2023/10/05 12:39:37;;;;;;;11.87;4.53;;;;;;;13.33;100.00;100989.13;4911352;58;1142952;-67
2023/10/05 12:44:43;;;;;;;12.83;4.90;;;;;;;13.37;100.00;100992.75;4947872;58;1148393;-66
2023/10/05 12:49:49;;;;;;;18.80;4.43;;;;;;;13.45;100.00;100996.58;4986028;56;1149640;-67
2023/10/05 12:54:56;;;;;;;16.50;5.47;;;;;;;13.48;100.00;100981.72;4932050;58;1143115;-66
2023/10/05 13:00:03;;;;;;;10.82;4.37;;;;;;;13.54;100.00;100985.20;4996135;57;1143089;-67
2023/10/05 13:05:09;;;;;;;13.80;4.30;;;;;;;13.58;100.00;100993.30;5010580;57;1142819;-67
2023/10/05 13:10:21;;;;;;;11.13;4.40;;;;;;;13.59;100.00;100989.67;4936233;57;1143047;-72
2023/10/05 13:15:31;;;;;;;14.63;5.23;;;;;;;13.58;100.00;100990.64;4992673;57;1142791;-73
2023/10/05 13:20:33;;;;;;;17.40;4.53;;;;;;;13.59;100.00;100990.52;5040724;56;1143077;-73
2023/10/05 13:25:51;;;;;;;12.37;4.57;;;;;;;13.61;100.00;100990.36;5050207;56;1143150;-73
2023/10/05 13:30:59;;;;;;;8.40;4.10;;;;;;;13.65;100.00;100982.02;4982606;57;1142994;-72
2023/10/05 13:36:04;;;;;;;10.57;3.70;;;;;;;13.66;100.00;100982.37;4886466;57;1141088;-73
2023/10/05 13:41:13;;;;;;;8.35;3.98;;;;;;;13.63;100.00;100993.73;4963174;57;1142930;-73
2023/10/05 13:46:23;;;;;;;11.50;4.17;;;;;;;13.54;100.00;100999.83;4962766;57;1140744;-72
2023/10/05 13:51:25;;;;;;;11.93;3.90;;;;;;;13.43;100.00;101003.86;5020371;57;1143131;-73
2023/10/05 13:56:34;;;;;;;8.10;3.40;;;;;;;13.35;100.00;101009.30;5041920;56;1143074;-72
2023/10/05 14:01:42;;;;;;;9.53;3.83;;;;;;;13.32;100.00;101016.66;4995960;57;1140777;-73
2023/10/05 14:06:49;;;;;;;8.80;3.53;;;;;;;13.42;100.00;101005.67;4997775;56;1140993;-73
2023/10/05 14:11:54;;;;;;;10.58;4.62;;;;;;;13.45;100.00;101000.08;4894515;57;1140969;-74
2023/10/05 14:17:06;;;;;;;10.43;3.75;;;;;;;13.56;100.00;101001.88;4986004;56;1142772;-74
2023/10/05 14:22:09;;;;;;;3.77;2.80;;;;;;;13.72;100.00;100985.02;5021781;55;1143077;-72
2023/10/05 14:27:16;;;;;;;9.53;4.87;;;;;;;13.68;100.00;100986.23;5034989;56;1140818;-72
2023/10/05 14:32:23;;;;;;;12.77;4.40;;;;;;;13.61;100.00;100979.73;5043690;55;1141046;-74
2023/10/05 14:37:28;;;;;;;8.67;4.07;;;;;;;13.57;100.00;100995.11;4947784;57;1143007;-75
2023/10/05 14:42:38;;;;;;;7.93;3.60;;;;;;;13.58;100.00;100995.95;5004875;56;1141012;-72
2023/10/05 14:47:44;;;;;;;7.73;3.27;;;;;;;13.59;100.00;100999.81;5029627;56;1140898;-72
2023/10/05 14:52:50;;;;;;;14.85;3.98;;;;;;;13.65;100.00;101009.08;5019922;56;1140984;-72
2023/10/05 14:57:57;;;;;;;7.70;3.87;;;;;;;13.65;100.00;101007.75;4945306;57;1142799;-73
2023/10/05 15:03:03;;;;;;;13.03;4.20;;;;;;;13.68;100.00;101021.64;4973021;56;1140756;-74
2023/10/05 15:08:11;;;;;;;9.53;5.53;;;;;;;13.67;100.00;101025.27;5023067;56;1142758;-71
2023/10/05 15:13:17;;;;;;;10.33;3.53;;;;;;;13.69;100.00;101018.02;5037730;56;1140852;-74
2023/10/05 15:18:24;;;;;;;5.30;2.60;;;;;;;13.68;100.00;101021.64;5030849;56;1143118;-73
2023/10/05 15:23:29;;;;;;;5.73;3.20;;;;;;;13.66;100.00;101015.59;5015002;57;1140861;-73
2023/10/05 15:28:37;;;;;;;7.20;3.30;;;;;;;13.68;100.00;101019.46;5073085;56;1140801;-71
2023/10/05 15:33:42;;;;;;;5.22;2.60;;;;;;;13.65;100.00;101024.55;5088883;56;1140502;-74
2023/10/05 15:38:48;;;;;;;6.03;3.00;;;;;;;13.61;100.00;101027.56;5082737;56;1141187;-72
2023/10/05 15:43:54;;;;;;;6.60;2.83;;;;;;;13.56;100.00;101024.47;5098866;56;1140874;-73
2023/10/05 15:49:01;;;;;;;7.07;2.73;;;;;;;13.50;100.00;101035.58;5099069;56;1140893;-72
2023/10/05 15:54:07;;;;;;;8.37;3.80;;;;;;;13.47;100.00;101039.33;5034277;56;1140678;-72
2023/10/05 15:59:13;;;;;;;5.40;2.83;;;;;;;13.46;100.00;101044.77;5001401;56;1140775;-72
2023/10/05 16:04:18;;;;;;;5.50;2.67;;;;;;;13.47;100.00;101049.11;4957398;57;1141099;-74
2023/10/05 16:09:27;;;;;;;5.90;2.50;;;;;;;13.47;100.00;101049.11;5096366;56;1140851;-73
2023/10/05 16:14:31;;;;;;;7.73;2.90;;;;;;;13.47;100.00;101066.38;5033726;56;1140915;-72
2023/10/05 16:19:38;;;;;;;5.47;2.50;;;;;;;13.44;100.00;101073.30;5001891;56;1140813;-73
2023/10/05 16:24:44;;;;;;;6.83;2.90;;;;;;;13.40;100.00;101077.16;5027183;56;1259969;-72
2023/10/05 16:29:52;;;;;;;10.70;2.98;;;;;;;13.35;100.00;101084.17;4959948;58;1141025;-72
2023/10/05 16:35:00;;;;;;;4.78;2.85;;;;;;;13.35;100.00;101086.83;5004749;57;1142962;-72
2023/10/05 16:40:18;;;;;;;9.00;2.95;;;;;;;13.37;100.00;101088.88;5054798;56;1141045;-73
2023/10/05 16:45:14;;;;;;;9.30;4.10;;;;;;;13.36;100.00;101097.33;5057658;56;1140766;-73
2023/10/05 16:50:22;;;;;;;5.70;3.47;;;;;;;13.36;100.00;101101.80;5026841;56;1140802;-72
2023/10/05 16:55:28;;;;;;;9.83;3.97;;;;;;;13.32;100.00;101102.52;5019875;56;1141060;-72
2023/10/05 17:00:35;;;;;;;6.67;2.60;;;;;;;13.27;100.00;101098.08;5076661;57;1141011;-72
2023/10/05 17:05:41;;;;;;;6.67;3.10;;;;;;;13.23;100.00;101105.08;5031174;56;1140932;-71
2023/10/05 17:10:47;;;;;;;5.83;2.33;;;;;;;13.17;100.00;101114.84;5002513;56;1140774;-72
2023/10/05 17:15:54;;;;;;;3.72;2.17;;;;;;;13.10;100.00;101117.12;5062217;56;1140893;-74
2023/10/05 17:20:59;;;;;;;8.78;2.30;;;;;;;13.02;100.00;101119.03;5083468;56;1140853;-72
2023/10/05 17:26:09;;;;;;;10.20;2.80;;;;;;;12.95;100.00;101127.62;5087727;56;1141024;-73
2023/10/05 17:31:16;;;;;;;5.37;1.70;;;;;;;12.86;100.00;101131.81;5064697;56;1143354;-71
2023/10/05 17:36:21;;;;;;;4.43;1.47;;;;;;;12.75;100.00;101144.23;5142724;56;1140759;-74
2023/10/05 17:41:27;;;;;;;4.97;1.47;;;;;;;12.65;100.00;101149.41;5053703;56;1140898;-74
2023/10/05 17:46:33;;;;;;;9.83;2.07;;;;;;;12.55;100.00;101156.35;5040997;56;1140972;-72
2023/10/05 17:51:38;;;;;;;3.53;1.50;;;;;;;12.48;100.00;101161.30;5011224;57;1141014;-72
2023/10/05 17:56:44;;;;;;;3.53;1.20;;;;;;;12.43;100.00;101168.74;5055223;56;1140838;-71
2023/10/05 18:01:50;;;;;;;2.43;1.20;;;;;;;12.39;100.00;101171.73;4974193;58;1140719;-74
2023/10/05 18:06:56;;;;;;;2.55;1.27;;;;;;;12.30;100.00;101178.58;5038931;57;1140889;-73
2023/10/05 18:12:03;;;;;;;5.80;1.80;;;;;;;12.23;100.00;101183.48;4980631;57;1140986;-72
2023/10/05 18:17:08;;;;;;;2.77;1.30;;;;;;;12.19;100.00;101190.47;4967861;57;1140893;-73
2023/10/05 18:22:14;;;;;;;4.47;1.63;;;;;;;12.17;100.00;101192.38;5098813;56;1140768;-72
2023/10/05 18:27:20;;;;;;;2.13;1.07;;;;;;;12.15;100.00;101197.80;5084601;56;1140781;-74
2023/10/05 18:32:26;;;;;;;3.37;0.97;;;;;;;12.13;100.00;101202.36;5158212;56;1140925;-73
2023/10/05 18:37:31;;;;;;;5.53;1.97;;;;;;;12.13;100.00;101220.08;5171711;55;1140890;-71
2023/10/05 18:42:43;;;;;;;4.50;1.90;;;;;;;12.08;100.00;101221.73;5026665;56;1141101;-72
2023/10/05 18:47:44;;;;;;;7.30;1.60;;;;;;;12.05;100.00;101227.75;5055450;56;1140645;-73
2023/10/05 18:52:50;;;;;;;4.57;1.80;;;;;;;11.96;100.00;101237.20;4977332;57;1140768;-72
2023/10/05 18:57:56;;;;;;;4.35;2.15;;;;;;;11.90;100.00;101235.86;5016591;57;1140821;-72
2023/10/05 19:03:02;;;;;;;3.92;2.50;;;;;;;11.87;100.00;101246.67;5037993;56;1140937;-74
2023/10/05 19:08:08;;;;;;;5.43;2.17;;;;;;;11.81;100.00;101255.05;5017390;56;1140979;-72
2023/10/05 19:13:14;;;;;;;3.23;2.10;;;;;;;11.72;100.00;101256.16;5056596;56;1140797;-75
2023/10/05 19:18:19;;;;;;;6.63;2.67;;;;;;;11.66;100.00;101263.20;5061635;56;1140927;-72
2023/10/05 19:23:25;;;;;;;4.80;3.07;;;;;;;11.61;100.00;101262.19;5068220;56;1140738;-73
2023/10/05 19:28:31;;;;;;;5.07;2.90;;;;;;;11.56;100.00;101278.43;5034514;56;1140593;-74
2023/10/05 19:33:36;;;;;;;6.00;3.40;;;;;;;11.52;100.00;101268.14;5110546;56;1141200;-72
2023/10/05 19:38:42;;;;;;;3.23;2.97;;;;;;;11.48;100.00;101277.25;5051696;56;1141030;-72
2023/10/05 19:43:48;;;;;;;6.47;3.60;;;;;;;11.44;100.00;101283.27;5042885;56;1140726;-75
2023/10/05 19:48:56;;;;;;;5.33;3.87;;;;;;;11.43;100.00;101292.16;4956752;57;1140781;-75
2023/10/05 19:54:01;;;;;;;7.80;3.90;;;;;;;11.41;100.00;101291.88;5008065;56;1140768;-75
2023/10/05 19:59:07;;;;;;;12.70;4.13;;;;;;;11.37;100.00;101299.66;4955898;56;1140663;-74
2023/10/05 20:04:13;;;;;;;6.37;3.90;;;;;;;11.33;100.00;101304.79;4994736;56;1143008;-75
2023/10/05 20:09:18;;;;;;;5.53;4.00;;;;;;;11.33;100.00;101320.67;5039900;57;1140945;-73
2023/10/05 20:14:24;;;;;;;6.33;4.20;;;;;;;11.34;100.00;101327.67;5049496;56;1141059;-74
2023/10/05 20:19:30;;;;;;;8.00;4.30;;;;;;;11.40;100.00;101327.27;4943729;56;1140858;-73
2023/10/05 20:24:36;;;;;;;7.67;4.10;;;;;;;11.42;100.00;101331.98;5026312;57;1140780;-73
2023/10/05 20:29:42;;;;;;;12.07;4.00;;;;;;;11.46;100.00;101336.95;4996434;57;1140644;-73
2023/10/05 20:34:48;;;;;;;6.03;4.00;;;;;;;11.47;100.00;101335.15;5078636;57;1142995;-72
2023/10/05 20:39:53;;;;;;;8.03;4.45;;;;;;;11.47;100.00;101338.65;5011130;57;1140986;-73
2023/10/05 20:44:59;;;;;;;7.08;4.40;;;;;;;11.44;100.00;101345.98;4995081;56;1141113;-71
2023/10/05 20:50:05;;;;;;;7.97;5.30;;;;;;;11.42;100.00;101343.91;4995917;56;1140932;-72
2023/10/05 20:55:11;;;;;;;8.43;4.20;;;;;;;11.38;100.00;101337.97;5015474;57;1140924;-73
2023/10/05 21:00:17;;;;;;;12.00;4.57;;;;;;;11.38;100.00;101344.58;5078766;56;1140803;-72
2023/10/05 21:05:24;;;;;;;10.33;3.80;;;;;;;11.36;100.00;101346.95;4995147;57;1142869;-72
2023/10/05 21:10:30;;;;;;;4.97;3.63;;;;;;;11.34;100.00;101347.06;4985615;57;1142774;-73
2023/10/05 21:15:36;;;;;;;7.17;3.70;;;;;;;11.31;100.00;101345.09;4995869;56;1140447;-73
2023/10/05 21:20:42;;;;;;;6.20;3.77;;;;;;;11.27;100.00;101350.61;4970563;58;1140949;-72
2023/10/05 21:25:49;;;;;;;5.93;3.77;;;;;;;11.25;100.00;101354.31;4994869;57;1141055;-72
2023/10/05 21:30:55;;;;;;;6.95;4.10;;;;;;;11.19;100.00;101351.59;4945140;57;1140826;-72
2023/10/05 21:36:01;;;;;;;4.13;3.73;;;;;;;11.15;100.00;101361.19;4988969;57;1140887;-72
2023/10/05 21:41:06;;;;;;;9.50;5.10;;;;;;;11.10;100.00;101361.95;5040638;56;1140716;-72
2023/10/05 21:46:12;;;;;;;12.97;4.30;;;;;;;11.06;100.00;101367.92;4944441;58;1140840;-72
2023/10/05 21:51:18;;;;;;;8.73;4.43;;;;;;;11.03;100.00;101368.12;5018194;57;1142871;-73
2023/10/05 21:56:23;;;;;;;4.57;3.57;;;;;;;11.01;100.00;101366.52;5050077;57;1140922;-73
2023/10/05 22:01:29;;;;;;;7.00;3.87;;;;;;;11.00;100.00;101370.14;5066417;56;1141039;-73
2023/10/05 22:06:35;;;;;;;6.13;3.60;;;;;;;10.96;100.00;101365.98;5065827;56;1140774;-72
2023/10/05 22:11:41;;;;;;;15.73;4.20;;;;;;;10.90;100.00;101365.43;5032934;56;1140976;-72
2023/10/05 22:16:46;;;;;;;9.27;4.50;;;;;;;10.89;100.00;101372.99;5014663;57;1142516;-72
2023/10/05 22:21:52;;;;;;;11.73;4.83;;;;;;;10.88;100.00;101381.03;5011853;57;1141075;-72
2023/10/05 22:26:59;;;;;;;9.23;4.80;;;;;;;10.86;100.00;101378.95;5020011;57;1143093;-71
2023/10/05 22:32:05;;;;;;;7.50;3.60;;;;;;;10.85;100.00;101378.58;5083637;56;1140903;-72
2023/10/05 22:37:10;;;;;;;8.17;4.77;;;;;;;10.81;100.00;101383.25;5044538;56;1140832;-73
2023/10/05 22:42:16;;;;;;;6.63;4.33;;;;;;;10.81;100.00;101385.04;5099353;56;1140956;-72
2023/10/05 22:47:22;;;;;;;5.77;4.60;;;;;;;10.78;100.00;101386.08;5110460;56;1140818;-72
2023/10/05 22:52:28;;;;;;;6.30;4.62;;;;;;;10.77;100.00;101383.53;5016027;57;1140840;-72
2023/10/05 22:57:33;;;;;;;10.00;4.70;;;;;;;10.75;100.00;101386.27;5040900;56;1140692;-72
2023/10/05 23:02:39;;;;;;;9.97;4.97;;;;;;;10.75;100.00;101385.42;5059536;57;1143037;-73
2023/10/05 23:07:45;;;;;;;8.07;5.43;;;;;;;10.74;100.00;101395.63;5072086;56;1140678;-72
2023/10/05 23:12:52;;;;;;;9.12;6.14;;;;;;;10.74;100.00;101404.42;4985582;57;1140788;-74
2023/10/05 23:17:58;;;;;;;9.95;6.12;;;;;;;10.72;100.00;101401.48;5020906;56;1140819;-72
2023/10/05 23:23:07;;;;;;;8.83;6.72;;;;;;;10.68;100.00;101411.44;5077179;56;1140787;-72
2023/10/05 23:28:14;;;;;;;14.43;8.23;;;;;;;10.64;100.00;101413.91;5059474;56;1141029;-72